sensor_id;sensor_type;location;lat;lon;timestamp;temperature;humidity
6355;DHT22;3210;48.708;9.030;2022-08-19T00:00:48;19.90;1.00
6355;DHT22;3210;48.708;9.030;2022-08-19T00:03:17;19.90;87.30
6355;DHT22;3210;48.708;9.030;2022-08-19T00:05:43;20.00;99.90
6355;DHT22;3210;48.708;9.030;2022-08-19T00:08:11;20.00;1.00
6355;DHT22;3210;48.708;9.030;2022-08-19T00:10:37;20.00;1.00
6355;DHT22;3210;48.708;9.030;2022-08-19T00:13:04;20.00;53.30
6355;DHT22;3210;48.708;9.030;2022-08-19T00:15:31;20.00;99.90
6355;DHT22;3210;48.708;9.030;2022-08-19T00:17:58;20.00;1.00
6355;DHT22;3210;48.708;9.030;2022-08-19T00:20:26;19.90;9.20
6355;DHT22;3210;48.708;9.030;2022-08-19T00:22:53;20.00;99.90
6355;DHT22;3210;48.708;9.030;2022-08-19T00:25:21;20.10;1.00
6355;DHT22;3210;48.708;9.030;2022-08-19T00:27:49;20.00;1.00
6355;DHT22;3210;48.708;9.030;2022-08-19T00:30:16;19.90;99.90
6355;DHT22;3210;48.708;9.030;2022-08-19T00:32:43;19.80;99.90
6355;DHT22;3210;48.708;9.030;2022-08-19T00:35:10;19.80;1.00
6355;DHT22;3210;48.708;9.030;2022-08-19T00:37:38;19.90;1.00
6355;DHT22;3210;48.708;9.030;2022-08-19T00:40:10;19.90;1.00
6355;DHT22;3210;48.708;9.030;2022-08-19T00:42:37;19.80;1.00
6355;DHT22;3210;48.708;9.030;2022-08-19T00:45:09;19.80;99.90
6355;DHT22;3210;48.708;9.030;2022-08-19T00:47:37;19.70;68.20
6355;DHT22;3210;48.708;9.030;2022-08-19T00:50:05;19.60;99.90
6355;DHT22;3210;48.708;9.030;2022-08-19T00:52:37;19.70;99.90
6355;DHT22;3210;48.708;9.030;2022-08-19T00:55:08;19.70;99.90
6355;DHT22;3210;48.708;9.030;2022-08-19T00:57:39;19.70;1.00
6355;DHT22;3210;48.708;9.030;2022-08-19T01:00:09;19.60;99.90
6355;DHT22;3210;48.708;9.030;2022-08-19T01:02:36;19.60;99.90
6355;DHT22;3210;48.708;9.030;2022-08-19T01:05:06;19.60;99.90
6355;DHT22;3210;48.708;9.030;2022-08-19T01:07:34;19.60;99.90
6355;DHT22;3210;48.708;9.030;2022-08-19T01:10:01;19.50;1.00
6355;DHT22;3210;48.708;9.030;2022-08-19T01:12:30;19.60;1.00
6355;DHT22;3210;48.708;9.030;2022-08-19T01:14:57;19.60;1.00
6355;DHT22;3210;48.708;9.030;2022-08-19T01:17:25;19.60;1.00
6355;DHT22;3210;48.708;9.030;2022-08-19T01:19:52;19.70;7.90
6355;DHT22;3210;48.708;9.030;2022-08-19T01:22:27;19.70;1.00
6355;DHT22;3210;48.708;9.030;2022-08-19T01:24:56;19.70;99.90
6355;DHT22;3210;48.708;9.030;2022-08-19T01:27:23;19.60;99.90
6355;DHT22;3210;48.708;9.030;2022-08-19T01:29:50;19.70;1.00
6355;DHT22;3210;48.708;9.030;2022-08-19T01:32:17;19.60;99.90
6355;DHT22;3210;48.708;9.030;2022-08-19T01:34:45;19.60;99.90
6355;DHT22;3210;48.708;9.030;2022-08-19T01:37:13;19.60;1.00
6355;DHT22;3210;48.708;9.030;2022-08-19T01:39:42;19.60;99.90
6355;DHT22;3210;48.708;9.030;2022-08-19T01:42:09;19.60;99.90
6355;DHT22;3210;48.708;9.030;2022-08-19T01:44:37;19.60;1.00
6355;DHT22;3210;48.708;9.030;2022-08-19T01:47:04;19.60;1.00
6355;DHT22;3210;48.708;9.030;2022-08-19T01:49:32;19.60;1.00
6355;DHT22;3210;48.708;9.030;2022-08-19T01:51:59;19.60;1.00
6355;DHT22;3210;48.708;9.030;2022-08-19T01:54:26;19.50;1.00
6355;DHT22;3210;48.708;9.030;2022-08-19T01:56:58;19.50;99.90
6355;DHT22;3210;48.708;9.030;2022-08-19T01:59:25;19.50;99.90
6355;DHT22;3210;48.708;9.030;2022-08-19T02:01:52;19.40;1.00
6355;DHT22;3210;48.708;9.030;2022-08-19T02:04:19;19.30;53.20
6355;DHT22;3210;48.708;9.030;2022-08-19T02:06:46;19.30;99.90
6355;DHT22;3210;48.708;9.030;2022-08-19T02:09:13;19.30;37.60
6355;DHT22;3210;48.708;9.030;2022-08-19T02:11:42;19.30;74.20
6355;DHT22;3210;48.708;9.030;2022-08-19T02:14:10;19.20;99.90
6355;DHT22;3210;48.708;9.030;2022-08-19T02:16:37;19.10;99.90
6355;DHT22;3210;48.708;9.030;2022-08-19T02:19:05;19.20;70.70
6355;DHT22;3210;48.708;9.030;2022-08-19T02:21:32;19.30;3.90
6355;DHT22;3210;48.708;9.030;2022-08-19T02:23:59;19.30;61.00
6355;DHT22;3210;48.708;9.030;2022-08-19T02:26:26;19.20;25.50
6355;DHT22;3210;48.708;9.030;2022-08-19T02:28:54;19.20;1.00
6355;DHT22;3210;48.708;9.030;2022-08-19T02:31:25;19.10;99.90
6355;DHT22;3210;48.708;9.030;2022-08-19T02:33:53;19.00;99.90
6355;DHT22;3210;48.708;9.030;2022-08-19T02:36:21;19.00;99.90
6355;DHT22;3210;48.708;9.030;2022-08-19T02:38:48;19.00;99.90
6355;DHT22;3210;48.708;9.030;2022-08-19T02:41:16;19.00;99.90
6355;DHT22;3210;48.708;9.030;2022-08-19T02:43:44;19.00;99.90
6355;DHT22;3210;48.708;9.030;2022-08-19T02:46:13;19.00;99.90
6355;DHT22;3210;48.708;9.030;2022-08-19T02:48:42;19.10;99.90
6355;DHT22;3210;48.708;9.030;2022-08-19T02:51:16;19.10;99.90
6355;DHT22;3210;48.708;9.030;2022-08-19T02:53:42;19.00;99.90
6355;DHT22;3210;48.708;9.030;2022-08-19T02:56:09;19.10;55.20
6355;DHT22;3210;48.708;9.030;2022-08-19T02:58:36;19.10;99.90
6355;DHT22;3210;48.708;9.030;2022-08-19T03:01:03;19.10;99.90
6355;DHT22;3210;48.708;9.030;2022-08-19T03:03:30;18.90;99.90
6355;DHT22;3210;48.708;9.030;2022-08-19T03:06:07;18.90;99.90
6355;DHT22;3210;48.708;9.030;2022-08-19T03:08:34;18.90;99.90
6355;DHT22;3210;48.708;9.030;2022-08-19T03:11:01;18.90;99.90
6355;DHT22;3210;48.708;9.030;2022-08-19T03:13:28;18.90;99.90
6355;DHT22;3210;48.708;9.030;2022-08-19T03:15:55;19.00;99.90
6355;DHT22;3210;48.708;9.030;2022-08-19T03:18:22;19.00;99.90
6355;DHT22;3210;48.708;9.030;2022-08-19T03:20:51;18.90;99.90
6355;DHT22;3210;48.708;9.030;2022-08-19T03:23:22;18.90;99.90
6355;DHT22;3210;48.708;9.030;2022-08-19T03:25:52;18.90;99.90
6355;DHT22;3210;48.708;9.030;2022-08-19T03:28:19;18.80;99.90
6355;DHT22;3210;48.708;9.030;2022-08-19T03:30:56;18.90;99.90
6355;DHT22;3210;48.708;9.030;2022-08-19T03:33:24;18.90;99.90
6355;DHT22;3210;48.708;9.030;2022-08-19T03:36:07;18.90;99.90
6355;DHT22;3210;48.708;9.030;2022-08-19T03:38:37;18.80;99.90
6355;DHT22;3210;48.708;9.030;2022-08-19T03:41:05;18.80;99.90
6355;DHT22;3210;48.708;9.030;2022-08-19T03:43:34;18.80;99.90
6355;DHT22;3210;48.708;9.030;2022-08-19T03:46:04;18.80;99.90
6355;DHT22;3210;48.708;9.030;2022-08-19T03:48:32;18.70;99.90
6355;DHT22;3210;48.708;9.030;2022-08-19T03:50:59;18.60;99.90
6355;DHT22;3210;48.708;9.030;2022-08-19T03:53:26;18.50;99.90
6355;DHT22;3210;48.708;9.030;2022-08-19T03:55:56;18.70;99.90
6355;DHT22;3210;48.708;9.030;2022-08-19T03:58:23;18.60;99.90
6355;DHT22;3210;48.708;9.030;2022-08-19T04:00:50;18.60;99.90
6355;DHT22;3210;48.708;9.030;2022-08-19T04:03:17;18.50;99.90
6355;DHT22;3210;48.708;9.030;2022-08-19T04:05:45;18.60;99.90
6355;DHT22;3210;48.708;9.030;2022-08-19T04:08:14;18.60;99.90
6355;DHT22;3210;48.708;9.030;2022-08-19T04:10:46;18.70;99.90
6355;DHT22;3210;48.708;9.030;2022-08-19T04:13:15;18.70;99.90
6355;DHT22;3210;48.708;9.030;2022-08-19T04:15:44;18.70;99.90
6355;DHT22;3210;48.708;9.030;2022-08-19T04:18:13;18.70;99.90
6355;DHT22;3210;48.708;9.030;2022-08-19T04:20:41;18.70;99.90
6355;DHT22;3210;48.708;9.030;2022-08-19T04:23:08;18.60;99.90
6355;DHT22;3210;48.708;9.030;2022-08-19T04:25:37;18.60;99.90
6355;DHT22;3210;48.708;9.030;2022-08-19T04:28:04;18.60;99.90
6355;DHT22;3210;48.708;9.030;2022-08-19T04:30:38;18.70;99.90
6355;DHT22;3210;48.708;9.030;2022-08-19T04:33:05;18.70;99.90
6355;DHT22;3210;48.708;9.030;2022-08-19T04:35:36;18.60;99.90
6355;DHT22;3210;48.708;9.030;2022-08-19T04:38:03;18.60;99.90
6355;DHT22;3210;48.708;9.030;2022-08-19T04:40:30;18.60;99.90
6355;DHT22;3210;48.708;9.030;2022-08-19T04:43:14;18.60;99.90
6355;DHT22;3210;48.708;9.030;2022-08-19T04:45:43;18.70;99.90
6355;DHT22;3210;48.708;9.030;2022-08-19T04:48:10;18.70;99.90
6355;DHT22;3210;48.708;9.030;2022-08-19T04:50:40;18.70;99.90
6355;DHT22;3210;48.708;9.030;2022-08-19T04:53:08;18.80;99.90
6355;DHT22;3210;48.708;9.030;2022-08-19T04:55:37;18.70;99.90
6355;DHT22;3210;48.708;9.030;2022-08-19T04:58:04;18.80;99.90
6355;DHT22;3210;48.708;9.030;2022-08-19T05:00:32;18.80;99.90
6355;DHT22;3210;48.708;9.030;2022-08-19T05:03:00;18.90;99.90
6355;DHT22;3210;48.708;9.030;2022-08-19T05:05:27;18.80;99.90
6355;DHT22;3210;48.708;9.030;2022-08-19T05:07:54;18.80;99.90
6355;DHT22;3210;48.708;9.030;2022-08-19T05:10:21;18.80;99.90
6355;DHT22;3210;48.708;9.030;2022-08-19T05:12:48;18.70;99.90
6355;DHT22;3210;48.708;9.030;2022-08-19T05:15:15;18.90;99.90
6355;DHT22;3210;48.708;9.030;2022-08-19T05:17:42;18.80;99.90
6355;DHT22;3210;48.708;9.030;2022-08-19T05:20:30;18.80;99.90
6355;DHT22;3210;48.708;9.030;2022-08-19T05:23:14;18.90;99.90
6355;DHT22;3210;48.708;9.030;2022-08-19T05:25:42;18.90;99.90
6355;DHT22;3210;48.708;9.030;2022-08-19T05:28:09;18.90;99.90
6355;DHT22;3210;48.708;9.030;2022-08-19T05:30:36;18.90;99.90
6355;DHT22;3210;48.708;9.030;2022-08-19T05:33:03;18.90;99.90
6355;DHT22;3210;48.708;9.030;2022-08-19T05:35:31;18.90;99.90
6355;DHT22;3210;48.708;9.030;2022-08-19T05:38:01;19.00;99.90
6355;DHT22;3210;48.708;9.030;2022-08-19T05:40:27;19.00;99.90
6355;DHT22;3210;48.708;9.030;2022-08-19T05:42:54;18.90;99.90
6355;DHT22;3210;48.708;9.030;2022-08-19T05:45:21;19.00;99.90
6355;DHT22;3210;48.708;9.030;2022-08-19T05:47:48;18.90;99.90
6355;DHT22;3210;48.708;9.030;2022-08-19T05:50:15;18.90;99.90
6355;DHT22;3210;48.708;9.030;2022-08-19T05:52:44;18.90;99.90
6355;DHT22;3210;48.708;9.030;2022-08-19T05:55:11;18.90;99.90
6355;DHT22;3210;48.708;9.030;2022-08-19T05:57:39;18.80;99.90
6355;DHT22;3210;48.708;9.030;2022-08-19T06:00:07;18.90;99.90
6355;DHT22;3210;48.708;9.030;2022-08-19T06:02:35;19.10;99.90
6355;DHT22;3210;48.708;9.030;2022-08-19T06:05:03;19.00;99.90
6355;DHT22;3210;48.708;9.030;2022-08-19T06:07:32;19.10;99.90
6355;DHT22;3210;48.708;9.030;2022-08-19T06:10:00;19.10;99.90
6355;DHT22;3210;48.708;9.030;2022-08-19T06:12:27;19.00;99.90
6355;DHT22;3210;48.708;9.030;2022-08-19T06:14:56;19.00;99.90
6355;DHT22;3210;48.708;9.030;2022-08-19T06:17:23;19.00;99.90
6355;DHT22;3210;48.708;9.030;2022-08-19T06:19:51;19.10;99.90
6355;DHT22;3210;48.708;9.030;2022-08-19T06:22:18;19.10;99.90
6355;DHT22;3210;48.708;9.030;2022-08-19T06:24:45;19.10;99.90
6355;DHT22;3210;48.708;9.030;2022-08-19T06:27:13;19.00;99.90
6355;DHT22;3210;48.708;9.030;2022-08-19T06:29:41;19.10;99.90
6355;DHT22;3210;48.708;9.030;2022-08-19T06:32:08;19.20;99.90
6355;DHT22;3210;48.708;9.030;2022-08-19T06:34:36;19.10;90.20
6355;DHT22;3210;48.708;9.030;2022-08-19T06:37:03;19.10;51.80
6355;DHT22;3210;48.708;9.030;2022-08-19T06:39:33;19.20;99.90
6355;DHT22;3210;48.708;9.030;2022-08-19T06:42:02;19.20;98.20
6355;DHT22;3210;48.708;9.030;2022-08-19T06:44:34;19.20;18.00
6355;DHT22;3210;48.708;9.030;2022-08-19T06:47:03;19.30;5.30
6355;DHT22;3210;48.708;9.030;2022-08-19T06:49:30;19.20;1.00
6355;DHT22;3210;48.708;9.030;2022-08-19T06:51:57;19.20;1.00
6355;DHT22;3210;48.708;9.030;2022-08-19T06:54:25;19.30;1.00
6355;DHT22;3210;48.708;9.030;2022-08-19T06:56:54;19.20;99.90
6355;DHT22;3210;48.708;9.030;2022-08-19T06:59:22;19.40;99.90
6355;DHT22;3210;48.708;9.030;2022-08-19T07:01:55;19.30;99.90
6355;DHT22;3210;48.708;9.030;2022-08-19T07:04:25;19.40;99.90
6355;DHT22;3210;48.708;9.030;2022-08-19T07:06:58;19.50;99.90
6355;DHT22;3210;48.708;9.030;2022-08-19T07:09:26;19.70;1.00
6355;DHT22;3210;48.708;9.030;2022-08-19T07:11:54;19.70;1.00
6355;DHT22;3210;48.708;9.030;2022-08-19T07:14:24;19.70;1.00
6355;DHT22;3210;48.708;9.030;2022-08-19T07:16:55;19.60;1.00
6355;DHT22;3210;48.708;9.030;2022-08-19T07:19:24;19.60;1.00
6355;DHT22;3210;48.708;9.030;2022-08-19T07:21:52;19.70;1.00
6355;DHT22;3210;48.708;9.030;2022-08-19T07:24:20;19.80;99.90
6355;DHT22;3210;48.708;9.030;2022-08-19T07:26:50;19.90;99.90
6355;DHT22;3210;48.708;9.030;2022-08-19T07:29:18;19.80;69.60
6355;DHT22;3210;48.708;9.030;2022-08-19T07:31:48;19.90;1.00
6355;DHT22;3210;48.708;9.030;2022-08-19T07:34:17;19.90;99.90
6355;DHT22;3210;48.708;9.030;2022-08-19T07:36:44;19.60;99.90
6355;DHT22;3210;48.708;9.030;2022-08-19T07:39:14;19.70;1.00
6355;DHT22;3210;48.708;9.030;2022-08-19T07:41:42;19.40;1.00
6355;DHT22;3210;48.708;9.030;2022-08-19T07:44:11;19.50;1.00
6355;DHT22;3210;48.708;9.030;2022-08-19T07:46:42;19.60;99.90
6355;DHT22;3210;48.708;9.030;2022-08-19T07:49:10;19.50;99.90
6355;DHT22;3210;48.708;9.030;2022-08-19T07:51:47;19.60;99.90
6355;DHT22;3210;48.708;9.030;2022-08-19T07:54:15;19.70;99.90
6355;DHT22;3210;48.708;9.030;2022-08-19T07:56:41;19.90;2.80
6355;DHT22;3210;48.708;9.030;2022-08-19T07:59:08;19.70;1.00
6355;DHT22;3210;48.708;9.030;2022-08-19T08:01:36;19.70;99.90
6355;DHT22;3210;48.708;9.030;2022-08-19T08:04:06;19.60;99.90
6355;DHT22;3210;48.708;9.030;2022-08-19T08:06:53;19.60;1.00
6355;DHT22;3210;48.708;9.030;2022-08-19T08:09:40;19.40;1.00
6355;DHT22;3210;48.708;9.030;2022-08-19T08:12:09;19.30;99.90
6355;DHT22;3210;48.708;9.030;2022-08-19T08:14:40;19.30;99.90
6355;DHT22;3210;48.708;9.030;2022-08-19T08:17:08;19.30;99.90
6355;DHT22;3210;48.708;9.030;2022-08-19T08:19:36;19.20;99.90
6355;DHT22;3210;48.708;9.030;2022-08-19T08:22:04;19.30;99.90
6355;DHT22;3210;48.708;9.030;2022-08-19T08:24:32;19.30;99.90
6355;DHT22;3210;48.708;9.030;2022-08-19T08:27:01;19.20;99.90
6355;DHT22;3210;48.708;9.030;2022-08-19T08:29:30;19.20;99.90
6355;DHT22;3210;48.708;9.030;2022-08-19T08:31:58;19.30;99.90
6355;DHT22;3210;48.708;9.030;2022-08-19T08:34:25;19.30;99.90
6355;DHT22;3210;48.708;9.030;2022-08-19T08:36:52;19.40;99.90
6355;DHT22;3210;48.708;9.030;2022-08-19T08:39:21;19.20;99.90
6355;DHT22;3210;48.708;9.030;2022-08-19T08:41:53;19.20;99.90
6355;DHT22;3210;48.708;9.030;2022-08-19T08:44:23;19.10;99.90
6355;DHT22;3210;48.708;9.030;2022-08-19T08:46:57;19.00;99.90
6355;DHT22;3210;48.708;9.030;2022-08-19T08:49:31;19.10;99.90
6355;DHT22;3210;48.708;9.030;2022-08-19T08:52:03;19.20;99.90
6355;DHT22;3210;48.708;9.030;2022-08-19T08:54:34;19.30;99.90
6355;DHT22;3210;48.708;9.030;2022-08-19T08:57:04;19.10;99.90
6355;DHT22;3210;48.708;9.030;2022-08-19T08:59:35;19.20;99.90
6355;DHT22;3210;48.708;9.030;2022-08-19T09:02:03;19.40;99.90
6355;DHT22;3210;48.708;9.030;2022-08-19T09:04:30;19.40;44.40
6355;DHT22;3210;48.708;9.030;2022-08-19T09:07:08;19.40;75.90
6355;DHT22;3210;48.708;9.030;2022-08-19T09:09:41;19.50;3.60
6355;DHT22;3210;48.708;9.030;2022-08-19T09:12:16;19.60;1.00
6355;DHT22;3210;48.708;9.030;2022-08-19T09:14:48;19.60;1.00
6355;DHT22;3210;48.708;9.030;2022-08-19T09:17:16;19.80;99.90
6355;DHT22;3210;48.708;9.030;2022-08-19T09:19:51;19.70;1.00
6355;DHT22;3210;48.708;9.030;2022-08-19T09:22:18;19.80;1.00
6355;DHT22;3210;48.708;9.030;2022-08-19T09:24:48;19.80;1.00
6355;DHT22;3210;48.708;9.030;2022-08-19T09:27:16;19.90;1.00
6355;DHT22;3210;48.708;9.030;2022-08-19T09:29:42;19.90;99.90
6355;DHT22;3210;48.708;9.030;2022-08-19T09:32:09;19.90;99.90
6355;DHT22;3210;48.708;9.030;2022-08-19T09:34:36;19.80;99.90
6355;DHT22;3210;48.708;9.030;2022-08-19T09:37:03;19.90;99.90
6355;DHT22;3210;48.708;9.030;2022-08-19T09:39:30;20.00;1.00
6355;DHT22;3210;48.708;9.030;2022-08-19T09:41:58;20.00;1.00
6355;DHT22;3210;48.708;9.030;2022-08-19T09:44:25;20.10;99.90
6355;DHT22;3210;48.708;9.030;2022-08-19T09:46:52;20.30;1.00
6355;DHT22;3210;48.708;9.030;2022-08-19T09:49:19;20.40;99.90
6355;DHT22;3210;48.708;9.030;2022-08-19T09:51:49;20.40;1.00
6355;DHT22;3210;48.708;9.030;2022-08-19T09:54:16;20.50;99.90
6355;DHT22;3210;48.708;9.030;2022-08-19T09:56:43;20.50;99.90
6355;DHT22;3210;48.708;9.030;2022-08-19T09:59:11;20.50;1.00
6355;DHT22;3210;48.708;9.030;2022-08-19T10:01:38;20.50;99.90
6355;DHT22;3210;48.708;9.030;2022-08-19T10:04:05;20.50;99.90
6355;DHT22;3210;48.708;9.030;2022-08-19T10:06:35;20.50;99.90
6355;DHT22;3210;48.708;9.030;2022-08-19T10:09:03;20.60;99.90
6355;DHT22;3210;48.708;9.030;2022-08-19T10:11:32;20.50;99.90
6355;DHT22;3210;48.708;9.030;2022-08-19T10:13:59;20.70;99.90
6355;DHT22;3210;48.708;9.030;2022-08-19T10:16:27;20.70;99.90
6355;DHT22;3210;48.708;9.030;2022-08-19T10:18:54;20.70;99.90
6355;DHT22;3210;48.708;9.030;2022-08-19T10:21:23;20.80;1.00
6355;DHT22;3210;48.708;9.030;2022-08-19T10:23:53;20.70;99.90
6355;DHT22;3210;48.708;9.030;2022-08-19T10:26:22;20.60;1.00
6355;DHT22;3210;48.708;9.030;2022-08-19T10:28:49;20.60;66.70
6355;DHT22;3210;48.708;9.030;2022-08-19T10:31:18;20.60;99.90
6355;DHT22;3210;48.708;9.030;2022-08-19T10:33:47;20.80;11.90
6355;DHT22;3210;48.708;9.030;2022-08-19T10:36:16;20.70;99.90
6355;DHT22;3210;48.708;9.030;2022-08-19T10:38:44;20.70;1.00
6355;DHT22;3210;48.708;9.030;2022-08-19T10:41:13;20.70;99.90
6355;DHT22;3210;48.708;9.030;2022-08-19T10:44:02;20.70;1.00
6355;DHT22;3210;48.708;9.030;2022-08-19T10:46:29;20.80;1.00
6355;DHT22;3210;48.708;9.030;2022-08-19T10:48:58;20.70;1.00
6355;DHT22;3210;48.708;9.030;2022-08-19T10:51:25;20.70;50.20
6355;DHT22;3210;48.708;9.030;2022-08-19T10:54:10;20.80;99.90
6355;DHT22;3210;48.708;9.030;2022-08-19T10:56:36;21.10;26.10
6355;DHT22;3210;48.708;9.030;2022-08-19T10:59:21;21.10;1.00
6355;DHT22;3210;48.708;9.030;2022-08-19T11:01:48;21.20;64.10
6355;DHT22;3210;48.708;9.030;2022-08-19T11:04:16;21.30;1.00
6355;DHT22;3210;48.708;9.030;2022-08-19T11:06:44;21.20;14.50
6355;DHT22;3210;48.708;9.030;2022-08-19T11:09:13;21.40;99.90
6355;DHT22;3210;48.708;9.030;2022-08-19T11:11:41;21.50;1.00
6355;DHT22;3210;48.708;9.030;2022-08-19T11:14:08;21.50;47.90
6355;DHT22;3210;48.708;9.030;2022-08-19T11:16:37;21.50;38.20
6355;DHT22;3210;48.708;9.030;2022-08-19T11:19:04;21.60;99.90
6355;DHT22;3210;48.708;9.030;2022-08-19T11:21:33;21.50;22.70
6355;DHT22;3210;48.708;9.030;2022-08-19T11:24:05;21.50;1.00
6355;DHT22;3210;48.708;9.030;2022-08-19T11:26:33;21.40;99.90
6355;DHT22;3210;48.708;9.030;2022-08-19T11:29:01;21.50;1.00
6355;DHT22;3210;48.708;9.030;2022-08-19T11:31:30;21.50;1.00
6355;DHT22;3210;48.708;9.030;2022-08-19T11:33:59;21.50;1.00
6355;DHT22;3210;48.708;9.030;2022-08-19T11:36:27;21.60;99.90
6355;DHT22;3210;48.708;9.030;2022-08-19T11:38:54;21.80;1.00
6355;DHT22;3210;48.708;9.030;2022-08-19T11:41:22;21.80;1.00
6355;DHT22;3210;48.708;9.030;2022-08-19T11:43:50;21.90;1.00
6355;DHT22;3210;48.708;9.030;2022-08-19T11:46:19;22.00;99.90
6355;DHT22;3210;48.708;9.030;2022-08-19T11:48:46;21.90;99.90
6355;DHT22;3210;48.708;9.030;2022-08-19T11:51:16;21.90;1.00
6355;DHT22;3210;48.708;9.030;2022-08-19T11:53:43;22.00;99.90
6355;DHT22;3210;48.708;9.030;2022-08-19T11:56:11;22.10;99.90
6355;DHT22;3210;48.708;9.030;2022-08-19T11:58:38;22.10;99.90
6355;DHT22;3210;48.708;9.030;2022-08-19T12:01:08;22.10;99.90
6355;DHT22;3210;48.708;9.030;2022-08-19T12:03:35;22.20;99.90
6355;DHT22;3210;48.708;9.030;2022-08-19T12:06:04;22.30;99.90
6355;DHT22;3210;48.708;9.030;2022-08-19T12:08:32;22.30;99.90
6355;DHT22;3210;48.708;9.030;2022-08-19T12:10:59;22.30;99.90
6355;DHT22;3210;48.708;9.030;2022-08-19T12:13:27;22.30;89.60
6355;DHT22;3210;48.708;9.030;2022-08-19T12:15:54;22.50;80.40
6355;DHT22;3210;48.708;9.030;2022-08-19T12:18:21;22.60;99.90
6355;DHT22;3210;48.708;9.030;2022-08-19T12:20:50;22.90;41.90
6355;DHT22;3210;48.708;9.030;2022-08-19T12:23:17;23.10;1.00
6355;DHT22;3210;48.708;9.030;2022-08-19T12:25:47;23.10;1.00
6355;DHT22;3210;48.708;9.030;2022-08-19T12:28:17;23.20;1.00
6355;DHT22;3210;48.708;9.030;2022-08-19T12:30:44;23.30;1.00
6355;DHT22;3210;48.708;9.030;2022-08-19T12:33:11;23.20;1.00
6355;DHT22;3210;48.708;9.030;2022-08-19T12:35:39;23.20;1.00
6355;DHT22;3210;48.708;9.030;2022-08-19T12:38:06;23.20;1.00
6355;DHT22;3210;48.708;9.030;2022-08-19T12:40:33;23.20;1.00
6355;DHT22;3210;48.708;9.030;2022-08-19T12:43:01;23.20;1.00
6355;DHT22;3210;48.708;9.030;2022-08-19T12:45:28;23.00;1.00
6355;DHT22;3210;48.708;9.030;2022-08-19T12:47:55;22.90;1.00
6355;DHT22;3210;48.708;9.030;2022-08-19T12:50:22;22.90;99.90
6355;DHT22;3210;48.708;9.030;2022-08-19T12:52:49;23.00;99.90
6355;DHT22;3210;48.708;9.030;2022-08-19T12:55:16;23.10;1.00
6355;DHT22;3210;48.708;9.030;2022-08-19T12:57:44;23.20;99.90
6355;DHT22;3210;48.708;9.030;2022-08-19T13:00:15;23.20;99.90
6355;DHT22;3210;48.708;9.030;2022-08-19T13:02:44;23.20;99.90
6355;DHT22;3210;48.708;9.030;2022-08-19T13:05:14;23.00;99.90
6355;DHT22;3210;48.708;9.030;2022-08-19T13:07:42;23.10;99.90
6355;DHT22;3210;48.708;9.030;2022-08-19T13:10:12;23.10;99.90
6355;DHT22;3210;48.708;9.030;2022-08-19T13:12:40;23.00;99.90
6355;DHT22;3210;48.708;9.030;2022-08-19T13:15:09;23.10;99.90
6355;DHT22;3210;48.708;9.030;2022-08-19T13:17:38;23.10;99.90
6355;DHT22;3210;48.708;9.030;2022-08-19T13:20:06;23.20;99.90
6355;DHT22;3210;48.708;9.030;2022-08-19T13:22:34;23.30;99.90
6355;DHT22;3210;48.708;9.030;2022-08-19T13:25:01;23.30;99.90
6355;DHT22;3210;48.708;9.030;2022-08-19T13:27:29;23.50;99.90
6355;DHT22;3210;48.708;9.030;2022-08-19T13:29:55;23.40;99.90
6355;DHT22;3210;48.708;9.030;2022-08-19T13:32:41;23.50;99.90
6355;DHT22;3210;48.708;9.030;2022-08-19T13:35:37;23.40;99.90
6355;DHT22;3210;48.708;9.030;2022-08-19T13:38:04;23.40;99.90
6355;DHT22;3210;48.708;9.030;2022-08-19T13:40:33;23.40;99.90
6355;DHT22;3210;48.708;9.030;2022-08-19T13:43:01;23.30;99.90
6355;DHT22;3210;48.708;9.030;2022-08-19T13:45:29;23.30;99.90
6355;DHT22;3210;48.708;9.030;2022-08-19T13:48:00;23.40;99.90
6355;DHT22;3210;48.708;9.030;2022-08-19T13:50:32;23.40;99.90
6355;DHT22;3210;48.708;9.030;2022-08-19T13:53:00;23.60;99.90
6355;DHT22;3210;48.708;9.030;2022-08-19T13:55:28;23.60;99.90
6355;DHT22;3210;48.708;9.030;2022-08-19T13:57:57;23.60;99.90
6355;DHT22;3210;48.708;9.030;2022-08-19T14:00:26;23.60;99.90
6355;DHT22;3210;48.708;9.030;2022-08-19T14:02:55;23.70;99.90
6355;DHT22;3210;48.708;9.030;2022-08-19T14:05:25;23.60;99.90
6355;DHT22;3210;48.708;9.030;2022-08-19T14:07:52;23.60;99.90
6355;DHT22;3210;48.708;9.030;2022-08-19T14:10:20;23.40;99.90
6355;DHT22;3210;48.708;9.030;2022-08-19T14:12:48;23.40;99.90
6355;DHT22;3210;48.708;9.030;2022-08-19T14:15:15;23.40;99.90
6355;DHT22;3210;48.708;9.030;2022-08-19T14:17:44;23.70;99.90
6355;DHT22;3210;48.708;9.030;2022-08-19T14:20:12;23.90;99.90
6355;DHT22;3210;48.708;9.030;2022-08-19T14:22:43;24.10;99.90
6355;DHT22;3210;48.708;9.030;2022-08-19T14:25:13;24.00;99.90
6355;DHT22;3210;48.708;9.030;2022-08-19T14:27:40;24.10;99.90
6355;DHT22;3210;48.708;9.030;2022-08-19T14:30:09;24.10;99.90
6355;DHT22;3210;48.708;9.030;2022-08-19T14:32:37;24.00;99.90
6355;DHT22;3210;48.708;9.030;2022-08-19T14:35:05;23.70;1.00
6355;DHT22;3210;48.708;9.030;2022-08-19T14:37:33;23.60;1.00
6355;DHT22;3210;48.708;9.030;2022-08-19T14:40:02;23.30;99.90
6355;DHT22;3210;48.708;9.030;2022-08-19T14:42:30;23.10;99.90
6355;DHT22;3210;48.708;9.030;2022-08-19T14:44:57;22.90;99.90
6355;DHT22;3210;48.708;9.030;2022-08-19T14:47:25;22.80;1.00
6355;DHT22;3210;48.708;9.030;2022-08-19T14:49:52;23.00;99.90
6355;DHT22;3210;48.708;9.030;2022-08-19T14:52:19;23.00;1.00
6355;DHT22;3210;48.708;9.030;2022-08-19T14:54:46;22.80;60.80
6355;DHT22;3210;48.708;9.030;2022-08-19T14:57:14;22.80;1.00
6355;DHT22;3210;48.708;9.030;2022-08-19T14:59:41;22.30;1.00
6355;DHT22;3210;48.708;9.030;2022-08-19T15:02:09;22.30;99.90
6355;DHT22;3210;48.708;9.030;2022-08-19T15:04:36;22.60;1.00
6355;DHT22;3210;48.708;9.030;2022-08-19T15:07:03;22.80;1.00
6355;DHT22;3210;48.708;9.030;2022-08-19T15:09:30;22.90;24.80
6355;DHT22;3210;48.708;9.030;2022-08-19T15:11:57;23.10;99.90
6355;DHT22;3210;48.708;9.030;2022-08-19T15:14:26;23.40;99.90
6355;DHT22;3210;48.708;9.030;2022-08-19T15:16:59;23.70;99.90
6355;DHT22;3210;48.708;9.030;2022-08-19T15:19:25;23.90;99.90
6355;DHT22;3210;48.708;9.030;2022-08-19T15:21:53;24.10;99.90
6355;DHT22;3210;48.708;9.030;2022-08-19T15:24:20;24.30;99.90
6355;DHT22;3210;48.708;9.030;2022-08-19T15:26:48;24.50;99.40
6355;DHT22;3210;48.708;9.030;2022-08-19T15:29:15;24.70;92.60
6355;DHT22;3210;48.708;9.030;2022-08-19T15:31:43;24.90;42.00
6355;DHT22;3210;48.708;9.030;2022-08-19T15:34:10;25.20;9.70
6355;DHT22;3210;48.708;9.030;2022-08-19T15:36:37;25.40;1.00
6355;DHT22;3210;48.708;9.030;2022-08-19T15:39:04;25.60;1.00
6355;DHT22;3210;48.708;9.030;2022-08-19T15:41:32;25.60;1.00
6355;DHT22;3210;48.708;9.030;2022-08-19T15:44:01;25.70;1.00
6355;DHT22;3210;48.708;9.030;2022-08-19T15:46:30;25.60;1.00
6355;DHT22;3210;48.708;9.030;2022-08-19T15:49:00;25.70;1.00
6355;DHT22;3210;48.708;9.030;2022-08-19T15:51:28;25.80;1.00
6355;DHT22;3210;48.708;9.030;2022-08-19T15:53:56;25.80;1.00
6355;DHT22;3210;48.708;9.030;2022-08-19T15:56:22;25.80;1.00
6355;DHT22;3210;48.708;9.030;2022-08-19T15:58:49;25.80;1.00
6355;DHT22;3210;48.708;9.030;2022-08-19T16:01:34;25.80;1.00
6355;DHT22;3210;48.708;9.030;2022-08-19T16:04:19;25.80;1.00
6355;DHT22;3210;48.708;9.030;2022-08-19T16:07:04;25.80;1.00
6355;DHT22;3210;48.708;9.030;2022-08-19T16:09:33;25.80;1.00
6355;DHT22;3210;48.708;9.030;2022-08-19T16:12:02;25.70;1.00
6355;DHT22;3210;48.708;9.030;2022-08-19T16:14:31;25.50;1.00
6355;DHT22;3210;48.708;9.030;2022-08-19T16:17:00;25.50;1.00